sensor_id;sensor_type;location;lat;lon;timestamp;temperature;humidity
70300;HTU21D;57704;51.112;5.878;2022-12-18T00:03:49;-3.54;72.63
70300;HTU21D;57704;51.112;5.878;2022-12-18T00:06:15;-3.53;72.58
70300;HTU21D;57704;51.112;5.878;2022-12-18T00:08:43;-3.60;72.73
70300;HTU21D;57704;51.112;5.878;2022-12-18T00:11:16;-3.62;72.80
70300;HTU21D;57704;51.112;5.878;2022-12-18T00:13:43;-3.65;72.74
70300;HTU21D;57704;51.112;5.878;2022-12-18T00:16:12;-3.62;72.68
70300;HTU21D;57704;51.112;5.878;2022-12-18T00:18:39;-3.69;72.43
70300;HTU21D;57704;51.112;5.878;2022-12-18T00:21:07;-3.75;72.44
70300;HTU21D;57704;51.112;5.878;2022-12-18T00:23:35;-3.77;72.54
70300;HTU21D;57704;51.112;5.878;2022-12-18T00:26:09;-3.79;72.54
70300;HTU21D;57704;51.112;5.878;2022-12-18T00:28:36;-3.80;72.61
70300;HTU21D;57704;51.112;5.878;2022-12-18T00:31:04;-3.82;72.67
70300;HTU21D;57704;51.112;5.878;2022-12-18T00:33:31;-3.84;72.76
70300;HTU21D;57704;51.112;5.878;2022-12-18T00:38:34;-3.82;72.74
70300;HTU21D;57704;51.112;5.878;2022-12-18T00:41:01;-3.85;72.75
70300;HTU21D;57704;51.112;5.878;2022-12-18T00:43:27;-3.86;72.91
70300;HTU21D;57704;51.112;5.878;2022-12-18T00:45:53;-3.84;72.98
70300;HTU21D;57704;51.112;5.878;2022-12-18T00:48:20;-3.83;72.87
70300;HTU21D;57704;51.112;5.878;2022-12-18T00:50:49;-3.81;72.84
70300;HTU21D;57704;51.112;5.878;2022-12-18T00:53:15;-3.81;72.81
70300;HTU21D;57704;51.112;5.878;2022-12-18T00:55:42;-3.79;72.69
70300;HTU21D;57704;51.112;5.878;2022-12-18T00:58:09;-3.80;72.58
70300;HTU21D;57704;51.112;5.878;2022-12-18T01:00:36;-3.80;72.59
70300;HTU21D;57704;51.112;5.878;2022-12-18T01:03:03;-3.86;72.62
70300;HTU21D;57704;51.112;5.878;2022-12-18T01:05:29;-3.91;72.70
70300;HTU21D;57704;51.112;5.878;2022-12-18T01:07:56;-3.95;72.83
70300;HTU21D;57704;51.112;5.878;2022-12-18T01:10:23;-3.98;72.98
70300;HTU21D;57704;51.112;5.878;2022-12-18T01:12:49;-4.00;73.08
70300;HTU21D;57704;51.112;5.878;2022-12-18T01:15:17;-4.01;73.09
70300;HTU21D;57704;51.112;5.878;2022-12-18T01:17:44;-4.01;73.11
70300;HTU21D;57704;51.112;5.878;2022-12-18T01:20:12;-4.01;73.03
70300;HTU21D;57704;51.112;5.878;2022-12-18T01:22:38;-4.07;72.97
70300;HTU21D;57704;51.112;5.878;2022-12-18T01:25:07;-4.12;73.22
70300;HTU21D;57704;51.112;5.878;2022-12-18T01:27:34;-4.15;73.25
70300;HTU21D;57704;51.112;5.878;2022-12-18T01:30:00;-4.19;73.36
70300;HTU21D;57704;51.112;5.878;2022-12-18T01:32:29;-4.20;73.44
70300;HTU21D;57704;51.112;5.878;2022-12-18T01:34:56;-4.15;73.50
70300;HTU21D;57704;51.112;5.878;2022-12-18T01:37:22;-4.16;73.48
70300;HTU21D;57704;51.112;5.878;2022-12-18T01:39:48;-4.14;73.48
70300;HTU21D;57704;51.112;5.878;2022-12-18T01:42:16;-4.11;73.43
70300;HTU21D;57704;51.112;5.878;2022-12-18T01:45:04;-4.09;73.46
70300;HTU21D;57704;51.112;5.878;2022-12-18T01:47:47;-4.09;73.28
70300;HTU21D;57704;51.112;5.878;2022-12-18T01:50:21;-4.07;73.22
70300;HTU21D;57704;51.112;5.878;2022-12-18T01:52:55;-4.02;73.12
70300;HTU21D;57704;51.112;5.878;2022-12-18T01:55:27;-3.98;72.98
70300;HTU21D;57704;51.112;5.878;2022-12-18T01:57:57;-3.98;72.72
70300;HTU21D;57704;51.112;5.878;2022-12-18T02:00:24;-4.00;72.77
70300;HTU21D;57704;51.112;5.878;2022-12-18T02:02:51;-4.01;72.72
70300;HTU21D;57704;51.112;5.878;2022-12-18T02:08:28;-4.07;72.74
70300;HTU21D;57704;51.112;5.878;2022-12-18T02:27:10;-4.44;73.39
70300;HTU21D;57704;51.112;5.878;2022-12-18T02:29:51;-4.46;73.47
70300;HTU21D;57704;51.112;5.878;2022-12-18T02:32:34;-4.48;73.60
70300;HTU21D;57704;51.112;5.878;2022-12-18T02:35:12;-4.46;73.58
70300;HTU21D;57704;51.112;5.878;2022-12-18T02:37:43;-4.45;73.60
70300;HTU21D;57704;51.112;5.878;2022-12-18T02:40:13;-4.48;73.50
70300;HTU21D;57704;51.112;5.878;2022-12-18T02:42:40;-4.51;73.62
70300;HTU21D;57704;51.112;5.878;2022-12-18T02:45:08;-4.52;73.66
70300;HTU21D;57704;51.112;5.878;2022-12-18T02:47:39;-4.54;73.70
70300;HTU21D;57704;51.112;5.878;2022-12-18T03:03:59;-4.59;73.72
70300;HTU21D;57704;51.112;5.878;2022-12-18T03:06:35;-4.60;73.82
70300;HTU21D;57704;51.112;5.878;2022-12-18T03:09:11;-4.63;73.90
70300;HTU21D;57704;51.112;5.878;2022-12-18T03:11:42;-4.65;73.93
70300;HTU21D;57704;51.112;5.878;2022-12-18T03:14:36;-4.67;74.17
70300;HTU21D;57704;51.112;5.878;2022-12-18T03:17:09;-4.65;74.18
70300;HTU21D;57704;51.112;5.878;2022-12-18T03:19:42;-4.68;74.15
70300;HTU21D;57704;51.112;5.878;2022-12-18T03:22:10;-4.69;74.24
70300;HTU21D;57704;51.112;5.878;2022-12-18T03:24:49;-4.68;74.33
70300;HTU21D;57704;51.112;5.878;2022-12-18T03:27:18;-4.70;74.31
70300;HTU21D;57704;51.112;5.878;2022-12-18T03:30:00;-4.73;74.38
70300;HTU21D;57704;51.112;5.878;2022-12-18T03:32:42;-4.73;74.53
70300;HTU21D;57704;51.112;5.878;2022-12-18T03:35:12;-4.69;74.54
70300;HTU21D;57704;51.112;5.878;2022-12-18T03:37:43;-4.69;74.41
70300;HTU21D;57704;51.112;5.878;2022-12-18T03:40:09;-4.71;74.44
70300;HTU21D;57704;51.112;5.878;2022-12-18T03:42:46;-4.71;74.39
70300;HTU21D;57704;51.112;5.878;2022-12-18T03:45:38;-4.69;74.44
70300;HTU21D;57704;51.112;5.878;2022-12-18T03:48:17;-4.72;74.38
70300;HTU21D;57704;51.112;5.878;2022-12-18T03:50:59;-4.78;74.47
70300;HTU21D;57704;51.112;5.878;2022-12-18T03:53:31;-4.81;74.64
70300;HTU21D;57704;51.112;5.878;2022-12-18T03:56:02;-4.83;74.76
70300;HTU21D;57704;51.112;5.878;2022-12-18T03:58:38;-4.79;74.81
70300;HTU21D;57704;51.112;5.878;2022-12-18T04:01:20;-4.83;74.86
70300;HTU21D;57704;51.112;5.878;2022-12-18T04:03:50;-4.83;74.99
70300;HTU21D;57704;51.112;5.878;2022-12-18T04:06:20;-4.80;74.89
70300;HTU21D;57704;51.112;5.878;2022-12-18T04:08:47;-4.76;74.93
70300;HTU21D;57704;51.112;5.878;2022-12-18T04:11:17;-4.76;74.91
70300;HTU21D;57704;51.112;5.878;2022-12-18T04:13:45;-4.78;74.94
70300;HTU21D;57704;51.112;5.878;2022-12-18T04:16:18;-4.78;75.03
70300;HTU21D;57704;51.112;5.878;2022-12-18T04:18:45;-4.72;75.03
70300;HTU21D;57704;51.112;5.878;2022-12-18T04:21:13;-4.70;75.05
70300;HTU21D;57704;51.112;5.878;2022-12-18T04:23:40;-4.64;75.00
70300;HTU21D;57704;51.112;5.878;2022-12-18T04:26:06;-4.60;74.88
70300;HTU21D;57704;51.112;5.878;2022-12-18T04:28:42;-4.54;74.71
70300;HTU21D;57704;51.112;5.878;2022-12-18T04:31:08;-4.54;74.64
70300;HTU21D;57704;51.112;5.878;2022-12-18T04:33:34;-4.52;74.69
70300;HTU21D;57704;51.112;5.878;2022-12-18T04:36:01;-4.50;74.57
70300;HTU21D;57704;51.112;5.878;2022-12-18T04:38:27;-4.52;74.57
70300;HTU21D;57704;51.112;5.878;2022-12-18T04:41:01;-4.50;74.50
70300;HTU21D;57704;51.112;5.878;2022-12-18T04:43:29;-4.49;74.48
70300;HTU21D;57704;51.112;5.878;2022-12-18T04:46:06;-4.44;74.44
70300;HTU21D;57704;51.112;5.878;2022-12-18T04:48:32;-4.46;74.36
70300;HTU21D;57704;51.112;5.878;2022-12-18T04:50:59;-4.45;74.45
70300;HTU21D;57704;51.112;5.878;2022-12-18T04:53:25;-4.46;74.51
70300;HTU21D;57704;51.112;5.878;2022-12-18T04:56:02;-4.41;74.44
70300;HTU21D;57704;51.112;5.878;2022-12-18T04:58:28;-4.40;74.38
70300;HTU21D;57704;51.112;5.878;2022-12-18T05:00:54;-4.36;74.36
70300;HTU21D;57704;51.112;5.878;2022-12-18T05:03:20;-4.34;74.31
70300;HTU21D;57704;51.112;5.878;2022-12-18T05:05:50;-4.34;74.38
70300;HTU21D;57704;51.112;5.878;2022-12-18T05:08:17;-4.37;74.36
70300;HTU21D;57704;51.112;5.878;2022-12-18T05:10:43;-4.37;74.53
70300;HTU21D;57704;51.112;5.878;2022-12-18T05:13:09;-4.38;74.30
70300;HTU21D;57704;51.112;5.878;2022-12-18T05:15:35;-4.39;74.15
70300;HTU21D;57704;51.112;5.878;2022-12-18T05:18:02;-4.39;74.05
70300;HTU21D;57704;51.112;5.878;2022-12-18T05:20:30;-4.36;73.99
70300;HTU21D;57704;51.112;5.878;2022-12-18T05:22:56;-4.36;73.87
70300;HTU21D;57704;51.112;5.878;2022-12-18T05:25:22;-4.37;73.91
70300;HTU21D;57704;51.112;5.878;2022-12-18T05:27:49;-4.37;73.83
70300;HTU21D;57704;51.112;5.878;2022-12-18T05:30:16;-4.36;73.73
70300;HTU21D;57704;51.112;5.878;2022-12-18T05:32:42;-4.36;73.63
70300;HTU21D;57704;51.112;5.878;2022-12-18T05:35:10;-4.36;73.51
70300;HTU21D;57704;51.112;5.878;2022-12-18T05:37:37;-4.36;73.43
70300;HTU21D;57704;51.112;5.878;2022-12-18T05:40:04;-4.37;73.38
70300;HTU21D;57704;51.112;5.878;2022-12-18T05:42:31;-4.41;73.36
70300;HTU21D;57704;51.112;5.878;2022-12-18T05:44:57;-4.41;73.28
70300;HTU21D;57704;51.112;5.878;2022-12-18T05:47:23;-4.41;73.03
70300;HTU21D;57704;51.112;5.878;2022-12-18T05:49:49;-4.40;72.99
70300;HTU21D;57704;51.112;5.878;2022-12-18T05:52:15;-4.41;72.92
70300;HTU21D;57704;51.112;5.878;2022-12-18T05:54:41;-4.43;72.99
70300;HTU21D;57704;51.112;5.878;2022-12-18T05:57:07;-4.42;73.04
70300;HTU21D;57704;51.112;5.878;2022-12-18T05:59:33;-4.43;72.96
70300;HTU21D;57704;51.112;5.878;2022-12-18T06:01:59;-4.42;72.99
70300;HTU21D;57704;51.112;5.878;2022-12-18T06:04:27;-4.43;73.01
70300;HTU21D;57704;51.112;5.878;2022-12-18T06:06:56;-4.44;72.90
70300;HTU21D;57704;51.112;5.878;2022-12-18T06:09:22;-4.46;73.00
70300;HTU21D;57704;51.112;5.878;2022-12-18T06:11:48;-4.45;72.96
70300;HTU21D;57704;51.112;5.878;2022-12-18T06:14:17;-4.46;72.94
70300;HTU21D;57704;51.112;5.878;2022-12-18T06:16:43;-4.46;72.70
70300;HTU21D;57704;51.112;5.878;2022-12-18T06:19:16;-4.45;72.57
70300;HTU21D;57704;51.112;5.878;2022-12-18T06:21:42;-4.49;72.66
70300;HTU21D;57704;51.112;5.878;2022-12-18T06:24:08;-4.54;72.65
70300;HTU21D;57704;51.112;5.878;2022-12-18T06:26:37;-4.56;72.68
70300;HTU21D;57704;51.112;5.878;2022-12-18T06:29:04;-4.56;72.73
70300;HTU21D;57704;51.112;5.878;2022-12-18T06:31:30;-4.61;72.86
70300;HTU21D;57704;51.112;5.878;2022-12-18T06:33:56;-4.61;73.03
70300;HTU21D;57704;51.112;5.878;2022-12-18T06:36:22;-4.61;73.04
70300;HTU21D;57704;51.112;5.878;2022-12-18T06:38:49;-4.61;73.04
70300;HTU21D;57704;51.112;5.878;2022-12-18T06:41:17;-4.63;73.20
70300;HTU21D;57704;51.112;5.878;2022-12-18T06:43:44;-4.65;73.14
70300;HTU21D;57704;51.112;5.878;2022-12-18T06:46:10;-4.65;73.15
70300;HTU21D;57704;51.112;5.878;2022-12-18T06:48:37;-4.66;73.14
70300;HTU21D;57704;51.112;5.878;2022-12-18T06:51:03;-4.68;73.09
70300;HTU21D;57704;51.112;5.878;2022-12-18T06:53:29;-4.66;73.12
70300;HTU21D;57704;51.112;5.878;2022-12-18T06:56:05;-4.70;73.06
70300;HTU21D;57704;51.112;5.878;2022-12-18T06:58:32;-4.72;73.08
70300;HTU21D;57704;51.112;5.878;2022-12-18T07:01:02;-4.69;73.09
70300;HTU21D;57704;51.112;5.878;2022-12-18T07:03:29;-4.68;73.64
70300;HTU21D;57704;51.112;5.878;2022-12-18T07:05:56;-4.65;73.80
70300;HTU21D;57704;51.112;5.878;2022-12-18T07:08:22;-4.61;73.86
70300;HTU21D;57704;51.112;5.878;2022-12-18T07:10:48;-4.59;74.09
70300;HTU21D;57704;51.112;5.878;2022-12-18T07:13:16;-4.55;74.15
70300;HTU21D;57704;51.112;5.878;2022-12-18T07:15:43;-4.50;74.25
70300;HTU21D;57704;51.112;5.878;2022-12-18T07:18:09;-4.46;74.26
70300;HTU21D;57704;51.112;5.878;2022-12-18T07:20:36;-4.44;74.28
70300;HTU21D;57704;51.112;5.878;2022-12-18T07:23:03;-4.45;74.45
70300;HTU21D;57704;51.112;5.878;2022-12-18T07:25:34;-4.45;74.43
70300;HTU21D;57704;51.112;5.878;2022-12-18T07:28:01;-4.42;74.48
70300;HTU21D;57704;51.112;5.878;2022-12-18T07:30:27;-4.42;74.51
70300;HTU21D;57704;51.112;5.878;2022-12-18T07:32:53;-4.41;74.54
70300;HTU21D;57704;51.112;5.878;2022-12-18T07:35:19;-4.43;74.68
70300;HTU21D;57704;51.112;5.878;2022-12-18T07:37:45;-4.40;74.75
70300;HTU21D;57704;51.112;5.878;2022-12-18T07:40:11;-4.36;74.75
70300;HTU21D;57704;51.112;5.878;2022-12-18T07:42:37;-4.37;74.83
70300;HTU21D;57704;51.112;5.878;2022-12-18T07:45:04;-4.36;74.94
70300;HTU21D;57704;51.112;5.878;2022-12-18T07:47:30;-4.35;74.95
70300;HTU21D;57704;51.112;5.878;2022-12-18T07:49:56;-4.28;74.96
70300;HTU21D;57704;51.112;5.878;2022-12-18T07:52:25;-4.26;75.01
70300;HTU21D;57704;51.112;5.878;2022-12-18T07:54:51;-4.16;75.24
70300;HTU21D;57704;51.112;5.878;2022-12-18T07:57:17;-3.96;75.71
70300;HTU21D;57704;51.112;5.878;2022-12-18T07:59:43;-3.75;75.35
70300;HTU21D;57704;51.112;5.878;2022-12-18T08:02:12;-3.49;75.73
70300;HTU21D;57704;51.112;5.878;2022-12-18T08:04:39;-2.90;77.22
70300;HTU21D;57704;51.112;5.878;2022-12-18T08:07:05;-2.06;78.01
70300;HTU21D;57704;51.112;5.878;2022-12-18T08:09:31;-1.49;74.16
70300;HTU21D;57704;51.112;5.878;2022-12-18T08:11:57;-1.44;70.82
70300;HTU21D;57704;51.112;5.878;2022-12-18T08:14:24;-1.67;68.97
70300;HTU21D;57704;51.112;5.878;2022-12-18T08:16:50;-1.89;69.18
70300;HTU21D;57704;51.112;5.878;2022-12-18T08:19:16;-2.06;69.07
70300;HTU21D;57704;51.112;5.878;2022-12-18T08:21:42;-2.23;69.67
70300;HTU21D;57704;51.112;5.878;2022-12-18T08:24:09;-2.35;69.74
70300;HTU21D;57704;51.112;5.878;2022-12-18T08:26:35;-2.44;70.32
70300;HTU21D;57704;51.112;5.878;2022-12-18T08:29:01;-2.45;70.81
70300;HTU21D;57704;51.112;5.878;2022-12-18T08:31:29;-2.32;71.84
70300;HTU21D;57704;51.112;5.878;2022-12-18T08:33:56;-1.97;72.68
70300;HTU21D;57704;51.112;5.878;2022-12-18T08:36:23;-1.47;72.27
70300;HTU21D;57704;51.112;5.878;2022-12-18T08:38:50;-1.05;72.18
70300;HTU21D;57704;51.112;5.878;2022-12-18T08:41:17;-0.71;70.15
70300;HTU21D;57704;51.112;5.878;2022-12-18T08:43:44;-0.57;68.66
70300;HTU21D;57704;51.112;5.878;2022-12-18T08:46:38;-0.45;68.37
70300;HTU21D;57704;51.112;5.878;2022-12-18T08:49:06;-0.43;67.35
70300;HTU21D;57704;51.112;5.878;2022-12-18T08:51:33;-0.59;66.55
70300;HTU21D;57704;51.112;5.878;2022-12-18T08:54:00;-0.74;66.46
70300;HTU21D;57704;51.112;5.878;2022-12-18T08:56:26;-0.90;66.82
70300;HTU21D;57704;51.112;5.878;2022-12-18T08:58:54;-1.02;67.33
70300;HTU21D;57704;51.112;5.878;2022-12-18T09:01:21;-0.85;68.68
70300;HTU21D;57704;51.112;5.878;2022-12-18T09:03:48;-0.41;70.06
70300;HTU21D;57704;51.112;5.878;2022-12-18T09:06:16;0.03;67.97
70300;HTU21D;57704;51.112;5.878;2022-12-18T09:08:44;0.28;67.31
70300;HTU21D;57704;51.112;5.878;2022-12-18T09:11:14;0.48;66.98
70300;HTU21D;57704;51.112;5.878;2022-12-18T09:13:41;0.62;66.04
70300;HTU21D;57704;51.112;5.878;2022-12-18T09:16:07;0.52;64.21
70300;HTU21D;57704;51.112;5.878;2022-12-18T09:18:33;0.23;64.48
70300;HTU21D;57704;51.112;5.878;2022-12-18T09:21:14;-0.00;64.84
70300;HTU21D;57704;51.112;5.878;2022-12-18T09:23:42;-0.20;65.24
70300;HTU21D;57704;51.112;5.878;2022-12-18T09:26:08;-0.32;65.66
70300;HTU21D;57704;51.112;5.878;2022-12-18T09:28:36;-0.44;65.74
70300;HTU21D;57704;51.112;5.878;2022-12-18T09:31:07;-0.53;66.67
70300;HTU21D;57704;51.112;5.878;2022-12-18T09:33:41;-0.41;67.05
70300;HTU21D;57704;51.112;5.878;2022-12-18T09:36:11;-0.31;66.67
70300;HTU21D;57704;51.112;5.878;2022-12-18T09:38:40;-0.30;66.72
70300;HTU21D;57704;51.112;5.878;2022-12-18T09:43:58;-0.22;67.20
70300;HTU21D;57704;51.112;5.878;2022-12-18T09:46:38;-0.07;66.95
70300;HTU21D;57704;51.112;5.878;2022-12-18T09:49:14;0.06;67.20
70300;HTU21D;57704;51.112;5.878;2022-12-18T09:51:49;0.23;66.95
70300;HTU21D;57704;51.112;5.878;2022-12-18T09:54:24;0.45;67.12
70300;HTU21D;57704;51.112;5.878;2022-12-18T09:56:51;0.75;67.10
70300;HTU21D;57704;51.112;5.878;2022-12-18T09:59:25;0.92;65.82
70300;HTU21D;57704;51.112;5.878;2022-12-18T10:01:56;0.96;65.55
70300;HTU21D;57704;51.112;5.878;2022-12-18T10:04:24;0.96;65.50
70300;HTU21D;57704;51.112;5.878;2022-12-18T10:07:07;1.04;64.34
70300;HTU21D;57704;51.112;5.878;2022-12-18T10:09:49;1.14;65.04
70300;HTU21D;57704;51.112;5.878;2022-12-18T10:20:16;0.92;64.45
70300;HTU21D;57704;51.112;5.878;2022-12-18T10:28:20;0.80;64.90
70300;HTU21D;57704;51.112;5.878;2022-12-18T10:30:46;0.81;65.29
70300;HTU21D;57704;51.112;5.878;2022-12-18T10:33:28;0.88;65.27
70300;HTU21D;57704;51.112;5.878;2022-12-18T10:35:55;0.87;65.19
70300;HTU21D;57704;51.112;5.878;2022-12-18T10:38:26;0.91;65.40
70300;HTU21D;57704;51.112;5.878;2022-12-18T10:41:00;0.92;65.43
70300;HTU21D;57704;51.112;5.878;2022-12-18T10:43:29;0.97;65.51
70300;HTU21D;57704;51.112;5.878;2022-12-18T10:46:12;0.95;65.29
70300;HTU21D;57704;51.112;5.878;2022-12-18T10:51:21;0.77;65.42
70300;HTU21D;57704;51.112;5.878;2022-12-18T10:53:55;0.74;65.64
70300;HTU21D;57704;51.112;5.878;2022-12-18T10:56:24;0.68;65.83
70300;HTU21D;57704;51.112;5.878;2022-12-18T10:59:01;0.67;65.62
70300;HTU21D;57704;51.112;5.878;2022-12-18T11:01:46;0.57;65.94
70300;HTU21D;57704;51.112;5.878;2022-12-18T11:04:21;0.53;66.14
70300;HTU21D;57704;51.112;5.878;2022-12-18T11:07:02;0.53;66.53
70300;HTU21D;57704;51.112;5.878;2022-12-18T11:09:31;0.51;66.59
70300;HTU21D;57704;51.112;5.878;2022-12-18T11:12:01;0.59;66.43
70300;HTU21D;57704;51.112;5.878;2022-12-18T11:14:29;0.59;66.40
70300;HTU21D;57704;51.112;5.878;2022-12-18T11:16:58;0.58;66.36
70300;HTU21D;57704;51.112;5.878;2022-12-18T11:19:34;0.63;66.61
70300;HTU21D;57704;51.112;5.878;2022-12-18T11:22:04;0.65;66.49
70300;HTU21D;57704;51.112;5.878;2022-12-18T11:25:34;0.67;66.46
70300;HTU21D;57704;51.112;5.878;2022-12-18T11:27:49;0.74;66.65
70300;HTU21D;57704;51.112;5.878;2022-12-18T11:32:49;0.87;66.48
70300;HTU21D;57704;51.112;5.878;2022-12-18T11:35:45;0.90;66.40
70300;HTU21D;57704;51.112;5.878;2022-12-18T11:38:39;0.88;66.26
70300;HTU21D;57704;51.112;5.878;2022-12-18T11:41:43;0.87;66.17
70300;HTU21D;57704;51.112;5.878;2022-12-18T11:44:57;0.83;66.50
70300;HTU21D;57704;51.112;5.878;2022-12-18T11:47:29;0.89;66.69
70300;HTU21D;57704;51.112;5.878;2022-12-18T11:50:01;0.93;66.65
70300;HTU21D;57704;51.112;5.878;2022-12-18T11:52:39;0.98;66.62
70300;HTU21D;57704;51.112;5.878;2022-12-18T11:55:40;0.99;66.37
70300;HTU21D;57704;51.112;5.878;2022-12-18T12:01:36;0.97;66.68
70300;HTU21D;57704;51.112;5.878;2022-12-18T12:04:12;0.99;66.10
70300;HTU21D;57704;51.112;5.878;2022-12-18T12:20:56;1.21;66.30
70300;HTU21D;57704;51.112;5.878;2022-12-18T12:23:38;1.21;66.22
70300;HTU21D;57704;51.112;5.878;2022-12-18T12:29:01;1.25;66.31
70300;HTU21D;57704;51.112;5.878;2022-12-18T12:31:44;1.29;66.59
70300;HTU21D;57704;51.112;5.878;2022-12-18T12:34:26;1.38;66.21
70300;HTU21D;57704;51.112;5.878;2022-12-18T12:37:18;1.39;65.83
70300;HTU21D;57704;51.112;5.878;2022-12-18T12:39:47;1.38;66.09
70300;HTU21D;57704;51.112;5.878;2022-12-18T12:42:33;1.38;66.17
70300;HTU21D;57704;51.112;5.878;2022-12-18T12:45:28;1.42;66.20
70300;HTU21D;57704;51.112;5.878;2022-12-18T12:48:02;1.46;66.05
70300;HTU21D;57704;51.112;5.878;2022-12-18T12:50:33;1.46;66.00
70300;HTU21D;57704;51.112;5.878;2022-12-18T12:53:06;1.47;66.08
70300;HTU21D;57704;51.112;5.878;2022-12-18T12:55:33;1.50;65.96
70300;HTU21D;57704;51.112;5.878;2022-12-18T13:01:28;1.57;65.98
70300;HTU21D;57704;51.112;5.878;2022-12-18T13:04:33;1.61;65.99
70300;HTU21D;57704;51.112;5.878;2022-12-18T13:15:31;1.67;65.67
70300;HTU21D;57704;51.112;5.878;2022-12-18T13:18:20;1.70;65.87
70300;HTU21D;57704;51.112;5.878;2022-12-18T13:20:50;1.76;65.93
70300;HTU21D;57704;51.112;5.878;2022-12-18T13:33:43;1.82;65.59
70300;HTU21D;57704;51.112;5.878;2022-12-18T13:38:42;1.85;65.17
70300;HTU21D;57704;51.112;5.878;2022-12-18T13:43:55;1.78;65.17
70300;HTU21D;57704;51.112;5.878;2022-12-18T13:51:54;1.75;65.50
70300;HTU21D;57704;51.112;5.878;2022-12-18T13:54:40;1.73;65.50
70300;HTU21D;57704;51.112;5.878;2022-12-18T13:57:27;1.73;65.51
70300;HTU21D;57704;51.112;5.878;2022-12-18T13:59:55;1.78;65.71
70300;HTU21D;57704;51.112;5.878;2022-12-18T14:02:27;1.81;65.33
70300;HTU21D;57704;51.112;5.878;2022-12-18T14:04:54;1.80;65.40
70300;HTU21D;57704;51.112;5.878;2022-12-18T14:07:29;1.80;65.08
70300;HTU21D;57704;51.112;5.878;2022-12-18T14:09:58;1.76;65.21
70300;HTU21D;57704;51.112;5.878;2022-12-18T14:12:35;1.71;65.37
70300;HTU21D;57704;51.112;5.878;2022-12-18T14:17:57;1.71;65.56
70300;HTU21D;57704;51.112;5.878;2022-12-18T14:20:32;1.71;65.59
70300;HTU21D;57704;51.112;5.878;2022-12-18T14:23:00;1.77;65.42
70300;HTU21D;57704;51.112;5.878;2022-12-18T14:25:28;1.75;65.30
70300;HTU21D;57704;51.112;5.878;2022-12-18T14:30:40;1.77;65.34
70300;HTU21D;57704;51.112;5.878;2022-12-18T14:35:56;1.73;65.40
70300;HTU21D;57704;51.112;5.878;2022-12-18T14:41:00;1.70;65.49
70300;HTU21D;57704;51.112;5.878;2022-12-18T14:43:30;1.66;65.38
70300;HTU21D;57704;51.112;5.878;2022-12-18T14:45:57;1.66;65.50
70300;HTU21D;57704;51.112;5.878;2022-12-18T14:51:18;1.63;65.44
70300;HTU21D;57704;51.112;5.878;2022-12-18T14:53:48;1.60;65.58
70300;HTU21D;57704;51.112;5.878;2022-12-18T14:56:24;1.63;65.61
70300;HTU21D;57704;51.112;5.878;2022-12-18T14:59:00;1.63;65.51
70300;HTU21D;57704;51.112;5.878;2022-12-18T15:01:34;1.61;65.54
70300;HTU21D;57704;51.112;5.878;2022-12-18T15:04:02;1.63;65.56
70300;HTU21D;57704;51.112;5.878;2022-12-18T15:06:35;1.57;65.62
70300;HTU21D;57704;51.112;5.878;2022-12-18T15:09:22;1.57;65.71
70300;HTU21D;57704;51.112;5.878;2022-12-18T15:11:49;1.56;65.59
70300;HTU21D;57704;51.112;5.878;2022-12-18T15:16:53;1.52;65.68
70300;HTU21D;57704;51.112;5.878;2022-12-18T15:19:37;1.49;65.91
70300;HTU21D;57704;51.112;5.878;2022-12-18T15:22:04;1.46;65.91
70300;HTU21D;57704;51.112;5.878;2022-12-18T15:24:32;1.46;66.09
70300;HTU21D;57704;51.112;5.878;2022-12-18T15:27:00;1.45;66.02
70300;HTU21D;57704;51.112;5.878;2022-12-18T15:29:27;1.39;66.16
70300;HTU21D;57704;51.112;5.878;2022-12-18T15:32:04;1.37;66.33
70300;HTU21D;57704;51.112;5.878;2022-12-18T15:34:32;1.37;66.39
70300;HTU21D;57704;51.112;5.878;2022-12-18T15:37:02;1.35;66.43
70300;HTU21D;57704;51.112;5.878;2022-12-18T15:39:28;1.33;66.59
70300;HTU21D;57704;51.112;5.878;2022-12-18T15:41:55;1.29;66.72
70300;HTU21D;57704;51.112;5.878;2022-12-18T15:44:40;1.28;66.93
70300;HTU21D;57704;51.112;5.878;2022-12-18T15:47:12;1.31;67.01
70300;HTU21D;57704;51.112;5.878;2022-12-18T15:49:39;1.31;67.04
70300;HTU21D;57704;51.112;5.878;2022-12-18T15:52:08;1.32;66.99
70300;HTU21D;57704;51.112;5.878;2022-12-18T15:54:37;1.32;67.00
70300;HTU21D;57704;51.112;5.878;2022-12-18T15:57:22;1.28;67.10
70300;HTU21D;57704;51.112;5.878;2022-12-18T15:59:50;1.26;67.17
70300;HTU21D;57704;51.112;5.878;2022-12-18T16:02:22;1.26;67.07
70300;HTU21D;57704;51.112;5.878;2022-12-18T16:04:50;1.25;67.18
70300;HTU21D;57704;51.112;5.878;2022-12-18T16:07:17;1.28;67.25
70300;HTU21D;57704;51.112;5.878;2022-12-18T16:09:43;1.28;67.32
70300;HTU21D;57704;51.112;5.878;2022-12-18T16:12:22;1.32;67.29
70300;HTU21D;57704;51.112;5.878;2022-12-18T16:14:49;1.32;67.30
70300;HTU21D;57704;51.112;5.878;2022-12-18T16:17:15;1.33;67.21
70300;HTU21D;57704;51.112;5.878;2022-12-18T16:19:41;1.35;67.20
70300;HTU21D;57704;51.112;5.878;2022-12-18T16:22:28;1.37;67.10
70300;HTU21D;57704;51.112;5.878;2022-12-18T16:24:56;1.36;66.91
70300;HTU21D;57704;51.112;5.878;2022-12-18T16:27:23;1.33;67.11
70300;HTU21D;57704;51.112;5.878;2022-12-18T16:29:50;1.33;67.17
70300;HTU21D;57704;51.112;5.878;2022-12-18T16:32:19;1.35;67.20
70300;HTU21D;57704;51.112;5.878;2022-12-18T16:34:46;1.34;67.19
70300;HTU21D;57704;51.112;5.878;2022-12-18T16:37:15;1.34;67.27
70300;HTU21D;57704;51.112;5.878;2022-12-18T16:39:41;1.35;67.32
70300;HTU21D;57704;51.112;5.878;2022-12-18T16:42:14;1.37;67.33
70300;HTU21D;57704;51.112;5.878;2022-12-18T16:44:43;1.36;67.30
70300;HTU21D;57704;51.112;5.878;2022-12-18T16:47:09;1.35;67.33
70300;HTU21D;57704;51.112;5.878;2022-12-18T16:49:35;1.35;67.46
70300;HTU21D;57704;51.112;5.878;2022-12-18T16:52:01;1.38;67.32
70300;HTU21D;57704;51.112;5.878;2022-12-18T16:54:27;1.40;67.19
70300;HTU21D;57704;51.112;5.878;2022-12-18T16:56:56;1.36;67.34
70300;HTU21D;57704;51.112;5.878;2022-12-18T16:59:22;1.32;67.49
70300;HTU21D;57704;51.112;5.878;2022-12-18T17:01:48;1.32;67.55
70300;HTU21D;57704;51.112;5.878;2022-12-18T17:04:15;1.31;67.55
70300;HTU21D;57704;51.112;5.878;2022-12-18T17:06:44;1.31;67.69
70300;HTU21D;57704;51.112;5.878;2022-12-18T17:09:13;1.31;67.75
70300;HTU21D;57704;51.112;5.878;2022-12-18T17:11:41;1.33;67.62
70300;HTU21D;57704;51.112;5.878;2022-12-18T17:14:13;1.26;67.68
70300;HTU21D;57704;51.112;5.878;2022-12-18T17:16:39;1.27;67.67
70300;HTU21D;57704;51.112;5.878;2022-12-18T17:19:06;1.23;67.78
70300;HTU21D;57704;51.112;5.878;2022-12-18T17:21:32;1.24;67.91
70300;HTU21D;57704;51.112;5.878;2022-12-18T17:24:00;1.24;67.88
70300;HTU21D;57704;51.112;5.878;2022-12-18T17:26:27;1.20;67.98
70300;HTU21D;57704;51.112;5.878;2022-12-18T17:28:56;1.19;68.04
70300;HTU21D;57704;51.112;5.878;2022-12-18T17:31:26;1.19;68.04
70300;HTU21D;57704;51.112;5.878;2022-12-18T17:33:53;1.13;68.16
70300;HTU21D;57704;51.112;5.878;2022-12-18T17:36:21;1.09;68.37
70300;HTU21D;57704;51.112;5.878;2022-12-18T17:38:56;1.09;68.47
70300;HTU21D;57704;51.112;5.878;2022-12-18T17:41:23;1.08;68.47
70300;HTU21D;57704;51.112;5.878;2022-12-18T17:43:57;1.07;68.58
70300;HTU21D;57704;51.112;5.878;2022-12-18T17:46:25;1.07;68.61
70300;HTU21D;57704;51.112;5.878;2022-12-18T17:48:54;1.03;68.66
70300;HTU21D;57704;51.112;5.878;2022-12-18T17:51:20;1.05;68.76
70300;HTU21D;57704;51.112;5.878;2022-12-18T17:53:48;1.02;68.81